Time;durP1;ratioP1;P1;durP2;ratioP2;P2;SDS_P1;SDS_P2;PMS_P1;PMS_P2;Temp;Humidity;BMP_temperature;BMP_pressure;BME280_temperature;BME280_humidity;BME280_pressure;Samples;Min_cycle;Max_cycle;Signal;HPM_P1;HPM_P2
2024/02/27 00:00:05;;;;;;;19.80;11.50;;;;;;;8.51;60.37;101422.94;4934747;28;123905;-77
2024/02/27 00:02:35;;;;;;;20.40;11.05;;;;;;;8.50;60.07;101413.31;4930193;28;115378;-78
2024/02/27 00:05:08;;;;;;;19.63;11.30;;;;;;;8.49;60.51;101409.78;4933928;28;114168;-78
2024/02/27 00:07:36;;;;;;;20.70;10.18;;;;;;;8.50;60.22;101416.81;4935133;28;124617;-77
2024/02/27 00:10:04;;;;;;;21.98;12.27;;;;;;;8.50;60.35;101421.22;4920663;28;124170;-77
2024/02/27 00:12:53;;;;;;;18.02;10.43;;;;;;;8.48;60.10;101423.91;4917453;28;113755;-77
2024/02/27 00:15:21;;;;;;;19.27;10.98;;;;;;;8.49;60.38;101424.75;4909958;28;113170;-77
2024/02/27 00:17:49;;;;;;;18.10;11.20;;;;;;;8.49;60.33;101422.13;4918324;28;124394;-76
2024/02/27 00:20:16;;;;;;;20.55;11.50;;;;;;;8.48;60.09;101430.97;4934943;28;124235;-77
2024/02/27 00:22:44;;;;;;;24.63;11.82;;;;;;;8.47;60.22;101430.06;4934536;28;114482;-77
2024/02/27 00:25:40;;;;;;;19.27;11.60;;;;;;;8.45;59.97;101434.53;4920709;28;112488;-77
2024/02/27 00:28:07;;;;;;;;;;;;;;;8.43;60.42;101435.50;4925478;28;124623;-77
2024/02/27 00:30:34;;;;;;;19.83;11.48;;;;;;;8.43;60.03;101441.63;4935012;28;124438;-78
2024/02/27 00:33:04;;;;;;;20.52;11.63;;;;;;;8.41;60.08;101447.84;4919676;28;114691;-78
2024/02/27 00:35:33;;;;;;;22.50;12.77;;;;;;;8.38;60.30;101438.19;4937202;28;113989;-78
2024/02/27 00:38:01;;;;;;;20.80;11.38;;;;;;;8.36;60.32;101440.91;4917707;28;123968;-77
2024/02/27 00:40:35;;;;;;;19.83;11.20;;;;;;;8.37;60.34;101442.63;4917076;28;124645;-77
2024/02/27 00:43:12;;;;;;;21.40;11.45;;;;;;;8.36;60.16;101440.91;4914134;28;115400;-77
2024/02/27 00:45:39;;;;;;;22.60;11.93;;;;;;;8.35;59.92;101449.72;4915358;28;114085;-77
2024/02/27 00:48:08;;;;;;;22.48;11.60;;;;;;;8.34;60.30;101448.00;4926066;28;124122;-78
2024/02/27 00:50:35;;;;;;;22.13;11.98;;;;;;;8.33;60.25;101451.53;4921394;28;123960;-78
2024/02/27 00:53:03;;;;;;;21.45;11.75;;;;;;;8.32;60.41;101449.78;4936622;28;114986;-78
2024/02/27 00:55:30;;;;;;;20.88;12.15;;;;;;;8.31;59.95;101452.50;4922466;28;114358;-78
2024/02/27 00:57:57;;;;;;;22.92;12.25;;;;;;;8.29;60.19;101449.88;4907394;28;124164;-78
2024/02/27 01:00:24;;;;;;;23.77;12.65;;;;;;;8.29;60.11;101455.16;4933713;28;124212;-78
2024/02/27 01:02:52;;;;;;;20.27;12.50;;;;;;;8.28;60.11;101448.13;4916691;28;114023;-78
2024/02/27 01:05:19;;;;;;;19.73;11.32;;;;;;;8.27;60.02;101451.69;4934810;28;113962;-78
2024/02/27 01:07:46;;;;;;;23.92;12.98;;;;;;;8.28;60.11;101450.78;4917212;28;123991;-77
2024/02/27 01:10:14;;;;;;;21.15;11.55;;;;;;;8.28;60.18;101463.13;4934838;28;124170;-77
2024/02/27 01:12:42;;;;;;;22.60;12.73;;;;;;;8.27;60.38;101456.97;4934990;28;113790;-78
2024/02/27 01:15:09;;;;;;;20.83;11.80;;;;;;;8.28;60.34;101457.84;4934203;28;113669;-77
2024/02/27 01:17:39;;;;;;;22.00;12.20;;;;;;;8.26;60.02;101460.50;4918942;28;123198;-78
2024/02/27 01:20:06;;;;;;;21.58;12.40;;;;;;;8.26;60.30;101455.22;4904153;28;122994;-78
2024/02/27 01:22:34;;;;;;;22.13;12.82;;;;;;;8.26;60.23;101460.50;4934726;28;114956;-78
2024/02/27 01:25:01;;;;;;;23.15;12.32;;;;;;;8.26;60.17;101455.22;4916713;28;114154;-78
2024/02/27 01:27:29;;;;;;;21.08;12.00;;;;;;;8.27;60.20;101462.25;4913891;28;123124;-78
2024/02/27 01:29:57;;;;;;;22.67;12.57;;;;;;;8.27;60.19;101456.97;4936226;28;124139;-78
2024/02/27 01:32:24;;;;;;;21.05;11.25;;;;;;;8.28;60.36;101460.47;4933318;28;115700;-77
2024/02/27 01:34:51;;;;;;;22.63;12.77;;;;;;;8.28;60.49;101473.66;4933523;28;115792;-77
2024/02/27 01:37:19;;;;;;;23.42;12.68;;;;;;;8.27;59.97;101467.53;4934075;28;124918;-78
2024/02/27 01:39:46;;;;;;;21.52;12.63;;;;;;;8.27;60.19;101472.81;4925572;28;124447;-77
2024/02/27 01:42:14;;;;;;;21.52;12.25;;;;;;;8.27;60.21;101475.44;4922034;28;113566;-76
2024/02/27 01:44:51;;;;;;;22.55;12.02;;;;;;;8.25;60.21;101474.63;4923136;28;113810;-77
2024/02/27 01:47:21;;;;;;;23.75;13.70;;;;;;;8.24;59.96;101472.88;4933657;28;123772;-77
2024/02/27 01:49:48;;;;;;;21.52;12.82;;;;;;;8.23;60.34;101481.72;4916229;28;122284;-78
2024/02/27 01:52:18;;;;;;;20.88;12.13;;;;;;;8.22;59.98;101474.69;4920308;28;114711;-77
2024/02/27 01:54:49;;;;;;;21.92;12.55;;;;;;;8.21;60.58;101478.22;4915757;28;113847;-77
2024/02/27 01:57:41;;;;;;;22.30;12.80;;;;;;;8.19;60.28;101480.03;4940212;28;123894;-77
2024/02/27 02:00:09;;;;;;;23.38;12.77;;;;;;;8.19;60.12;101477.41;4922136;28;122529;-77
2024/02/27 02:02:43;;;;;;;21.27;12.68;;;;;;;8.20;60.27;101481.78;4912443;28;114039;-77
2024/02/27 02:05:14;;;;;;;21.08;12.65;;;;;;;8.19;60.29;101485.31;4934919;28;114365;-77
2024/02/27 02:07:41;;;;;;;23.05;12.75;;;;;;;8.18;59.99;101499.44;4918995;28;124119;-78
2024/02/27 02:10:10;;;;;;;22.48;12.98;;;;;;;8.17;60.30;101487.13;4924307;28;123578;-77
2024/02/27 02:12:37;;;;;;;21.95;13.25;;;;;;;8.15;60.30;101494.22;4910401;28;113217;-78
2024/02/27 02:15:05;;;;;;;22.15;12.40;;;;;;;8.15;60.30;101499.50;4927972;28;114001;-77
2024/02/27 02:17:33;;;;;;;22.20;12.07;;;;;;;8.14;60.21;101493.34;4937859;28;124684;-77
2024/02/27 02:20:04;;;;;;;22.13;12.75;;;;;;;8.14;60.48;101503.06;4902278;28;123912;-78
2024/02/27 02:22:33;;;;;;;23.98;13.13;;;;;;;8.14;60.27;101508.31;4919240;28;115775;-78
2024/02/27 02:25:07;;;;;;;24.42;13.05;;;;;;;8.13;60.42;101502.16;4921051;28;114583;-78
2024/02/27 02:27:38;;;;;;;22.60;12.95;;;;;;;8.13;60.15;101509.22;4935727;28;124971;-77
2024/02/27 02:30:06;;;;;;;23.58;13.15;;;;;;;8.13;60.43;101511.84;4899074;28;124177;-77
2024/02/27 02:32:45;;;;;;;25.30;13.10;;;;;;;8.12;60.13;101508.34;4921269;28;114117;-78
2024/02/27 02:35:12;;;;;;;25.85;12.95;;;;;;;8.12;60.32;101515.41;4916944;28;113165;-78
2024/02/27 02:37:40;;;;;;;22.95;12.35;;;;;;;8.13;60.19;101514.50;4894914;28;123747;-78
2024/02/27 02:40:12;;;;;;;22.42;12.60;;;;;;;8.13;60.14;101511.84;4918343;28;122830;-78
2024/02/27 02:42:41;;;;;;;23.92;13.07;;;;;;;8.13;60.11;101522.41;4915679;28;114538;-78
2024/02/27 02:45:08;;;;;;;23.13;13.05;;;;;;;8.13;60.27;101514.50;4934234;28;114626;-78
2024/02/27 02:47:36;;;;;;;24.58;13.30;;;;;;;8.13;60.39;101525.03;4916817;28;124342;-78
2024/02/27 02:50:30;;;;;;;24.80;13.38;;;;;;;8.13;60.43;101522.41;4926655;28;124663;-78
2024/02/27 02:52:57;;;;;;;21.33;12.43;;;;;;;8.13;60.12;101532.97;4931661;28;114106;-78
2024/02/27 02:55:26;;;;;;;25.25;12.90;;;;;;;8.12;60.30;101533.88;4919859;28;113777;-78
2024/02/27 02:57:55;;;;;;;23.65;14.07;;;;;;;8.10;60.50;101533.91;4936498;28;124053;-78
2024/02/27 03:00:22;;;;;;;21.73;12.65;;;;;;;8.11;60.46;101532.13;4920429;28;122832;-78
2024/02/27 03:02:50;;;;;;;23.65;13.10;;;;;;;8.11;60.37;101529.50;4919663;28;113234;-77
2024/02/27 03:05:18;;;;;;;24.23;13.02;;;;;;;8.10;60.32;101528.63;4935303;28;114090;-78
2024/02/27 03:07:45;;;;;;;24.08;12.73;;;;;;;8.10;60.35;101531.28;4933956;28;124073;-78
2024/02/27 03:10:12;;;;;;;24.17;12.80;;;;;;;8.12;60.29;101531.25;4938369;28;123848;-78
2024/02/27 03:12:43;;;;;;;23.48;12.95;;;;;;;8.12;60.45;101536.53;4922659;28;115690;-77
2024/02/27 03:15:10;;;;;;;21.38;12.23;;;;;;;8.13;60.44;101543.53;4918444;28;113464;-77
2024/02/27 03:17:38;;;;;;;22.20;12.65;;;;;;;8.13;60.14;101539.09;4932197;28;125068;-78
2024/02/27 03:20:10;;;;;;;23.95;12.75;;;;;;;8.14;60.23;101545.28;4934487;28;124031;-77
2024/02/27 03:22:37;;;;;;;25.38;12.68;;;;;;;8.14;60.34;101542.63;4906809;28;114296;-78
2024/02/27 03:25:05;;;;;;;21.23;12.07;;;;;;;8.15;60.24;101536.44;4929061;28;114212;-77
2024/02/27 03:27:38;;;;;;;24.10;12.85;;;;;;;8.13;60.16;101548.78;4886467;28;123555;-76
2024/02/27 03:30:07;;;;;;;21.13;11.57;;;;;;;8.13;60.28;101548.78;4917194;28;123608;-77
2024/02/27 03:32:34;;;;;;;25.13;12.52;;;;;;;8.12;60.10;101540.03;4900105;28;113542;-77
2024/02/27 03:35:02;;;;;;;21.00;12.25;;;;;;;8.12;60.37;101547.06;4928342;28;114575;-79
2024/02/27 03:37:29;;;;;;;25.30;13.25;;;;;;;8.10;60.31;101538.31;4907331;28;122837;-77
2024/02/27 03:40:19;;;;;;;23.92;13.07;;;;;;;8.09;60.13;101531.31;4907022;28;125534;-77
2024/02/27 03:42:49;;;;;;;22.13;12.52;;;;;;;8.08;60.48;101534.84;4907341;28;113669;-76
2024/02/27 03:45:16;;;;;;;21.92;12.35;;;;;;;8.07;60.32;101543.66;4911762;28;113976;-77
2024/02/27 03:47:45;;;;;;;23.23;12.55;;;;;;;8.06;60.33;101547.19;4911537;28;122740;-77
2024/02/27 03:50:17;;;;;;;25.33;13.52;;;;;;;8.03;60.54;101531.47;4914685;28;124111;-78
2024/02/27 03:52:44;;;;;;;24.80;13.73;;;;;;;8.02;60.05;101535.00;4916862;28;114279;-77
2024/02/27 03:55:11;;;;;;;25.58;13.15;;;;;;;7.99;60.31;101536.78;4934476;28;114253;-77
2024/02/27 03:57:38;;;;;;;23.35;12.63;;;;;;;7.96;60.28;101536.84;4932517;28;124468;-77
2024/02/27 04:00:06;;;;;;;26.95;13.55;;;;;;;7.94;60.03;101533.38;4934690;28;124261;-77
2024/02/27 04:02:34;;;;;;;26.92;13.75;;;;;;;7.91;60.61;101532.59;4936236;28;114460;-77
2024/02/27 04:05:01;;;;;;;23.95;12.90;;;;;;;7.88;59.91;101533.53;4913912;28;114778;-77
2024/02/27 04:07:28;;;;;;;24.05;13.30;;;;;;;7.84;60.15;101537.16;4902656;28;123446;-76
2024/02/27 04:09:56;;;;;;;27.35;13.38;;;;;;;7.78;60.24;101532.88;4920070;28;123369;-77
2024/02/27 04:12:25;;;;;;;25.92;12.85;;;;;;;7.76;60.22;101539.06;4919120;28;114443;-77
2024/02/27 04:14:53;;;;;;;23.85;13.52;;;;;;;7.74;60.07;101546.16;4910561;28;113144;-77
2024/02/27 04:17:27;;;;;;;28.48;13.35;;;;;;;7.69;60.06;101553.31;4916226;28;124282;-77
2024/02/27 04:19:57;;;;;;;26.45;13.25;;;;;;;7.66;60.10;101558.63;4934475;28;124051;-77
2024/02/27 04:22:25;;;;;;;27.77;13.95;;;;;;;7.60;60.28;101560.50;4934122;28;114529;-78
2024/02/27 04:24:52;;;;;;;24.20;12.90;;;;;;;7.57;60.15;101557.94;4935673;28;114487;-77
2024/02/27 04:27:19;;;;;;;25.70;14.18;;;;;;;7.54;60.29;101565.91;4916460;28;123352;-77
2024/02/27 04:29:54;;;;;;;27.38;13.23;;;;;;;7.48;60.41;101566.03;4920493;28;124312;-77
2024/02/27 04:32:21;;;;;;;24.47;13.13;;;;;;;7.45;60.19;101581.91;4904781;28;113293;-77
2024/02/27 04:34:48;;;;;;;26.52;12.52;;;;;;;7.40;60.36;101573.22;4937548;28;113891;-77
2024/02/27 04:37:16;;;;;;;26.52;13.55;;;;;;;7.38;60.67;101580.28;4934156;28;123813;-78
2024/02/27 04:39:44;;;;;;;28.17;12.98;;;;;;;7.36;60.60;101576.81;4908730;28;124715;-78
2024/02/27 04:42:12;;;;;;;26.05;13.25;;;;;;;7.34;60.61;101575.97;4933146;28;114456;-77
2024/02/27 04:44:39;;;;;;;26.08;12.95;;;;;;;7.32;60.81;101580.41;4937022;28;114102;-77
2024/02/27 04:47:06;;;;;;;27.10;13.30;;;;;;;7.29;60.71;101585.75;4917624;28;123888;-77
2024/02/27 04:49:34;;;;;;;24.20;12.68;;;;;;;7.26;60.36;101570.88;4934085;28;124238;-77
2024/02/27 04:52:01;;;;;;;25.45;13.38;;;;;;;7.26;60.42;101585.81;4933781;28;116314;-77
2024/02/27 04:54:29;;;;;;;25.65;13.25;;;;;;;7.24;60.38;101582.34;4924535;28;114879;-77
2024/02/27 04:56:56;;;;;;;28.58;13.48;;;;;;;7.20;60.44;101579.75;4920890;28;124028;-77
2024/02/27 04:59:26;;;;;;;25.92;13.32;;;;;;;7.16;60.56;101580.72;4916922;28;124050;-77
2024/02/27 05:01:53;;;;;;;26.85;14.02;;;;;;;7.12;60.54;101584.31;4917215;28;114106;-78
2024/02/27 05:04:20;;;;;;;26.85;14.13;;;;;;;7.09;60.31;101589.63;4927453;28;113824;-77
2024/02/27 05:06:55;;;;;;;26.67;12.93;;;;;;;7.06;60.70;101596.72;4933519;28;123991;-77
2024/02/27 05:09:23;;;;;;;27.43;14.47;;;;;;;7.04;60.71;101602.00;4934032;28;124215;-77
2024/02/27 05:11:51;;;;;;;26.45;13.65;;;;;;;7.01;60.84;101600.31;4934167;28;113845;-77
2024/02/27 05:14:18;;;;;;;28.20;13.70;;;;;;;6.99;60.53;101614.41;4936828;28;114169;-77
2024/02/27 05:16:46;;;;;;;26.30;13.88;;;;;;;6.96;60.41;101615.31;4935527;28;123279;-76
2024/02/27 05:19:14;;;;;;;27.27;13.05;;;;;;;6.94;60.96;101626.78;4934094;28;123698;-77
2024/02/27 05:21:42;;;;;;;28.25;13.90;;;;;;;6.92;61.28;101629.44;4933031;28;114320;-76
2024/02/27 05:24:17;;;;;;;26.13;13.50;;;;;;;6.91;61.26;101626.81;4935150;28;113260;-78
2024/02/27 05:26:44;;;;;;;29.48;14.70;;;;;;;6.91;61.14;101626.81;4926397;28;124403;-78
2024/02/27 05:29:15;;;;;;;28.02;13.77;;;;;;;6.90;61.12;101635.63;4934768;28;123932;-78
2024/02/27 05:31:44;;;;;;;30.58;15.88;;;;;;;6.90;61.22;101631.22;4921048;28;113498;-78
2024/02/27 05:34:11;;;;;;;29.45;14.95;;;;;;;6.89;60.94;101644.41;4921870;28;113755;-79
2024/02/27 05:36:39;;;;;;;29.90;14.48;;;;;;;6.87;61.09;101638.31;4936216;28;124606;-78
2024/02/27 05:39:08;;;;;;;29.25;15.05;;;;;;;6.87;61.16;101648.84;4936147;28;124280;-77
2024/02/27 05:41:35;;;;;;;30.58;15.23;;;;;;;6.86;61.40;101644.50;4922018;28;114986;-77
2024/02/27 05:44:10;;;;;;;28.67;15.50;;;;;;;6.83;61.31;101646.25;4911065;28;113952;-77
2024/02/27 05:46:37;;;;;;;28.23;14.40;;;;;;;6.85;61.50;101653.25;4919866;28;124054;-78
2024/02/27 05:49:04;;;;;;;30.30;15.35;;;;;;;6.83;61.20;101646.25;4929226;28;124549;-78
2024/02/27 05:51:40;;;;;;;29.35;14.90;;;;;;;6.82;61.48;101654.19;4930998;28;113930;-77
2024/02/27 05:54:08;;;;;;;27.13;14.25;;;;;;;6.81;61.63;101650.66;4930002;28;113191;-77
2024/02/27 05:56:36;;;;;;;29.60;14.25;;;;;;;6.81;61.36;101658.56;4936991;28;124510;-78
2024/02/27 05:59:03;;;;;;;32.22;15.98;;;;;;;6.79;61.26;101656.88;4924359;28;122987;-77
2024/02/27 06:01:30;;;;;;;21.95;10.07;;;;;;;6.77;61.17;101662.16;4932976;28;114490;-77
2024/02/27 06:04:11;;;;;;;22.95;8.68;;;;;;;6.77;61.18;101656.88;4930176;28;113843;-78
2024/02/27 06:06:39;;;;;;;21.02;8.50;;;;;;;6.76;61.51;101655.16;4919698;28;123415;-77
2024/02/27 06:09:07;;;;;;;20.95;8.77;;;;;;;6.74;61.35;101662.22;4932785;28;123124;-77
2024/02/27 06:11:37;;;;;;;21.33;8.52;;;;;;;6.74;61.13;101671.84;4925968;28;114673;-77
2024/02/27 06:14:04;;;;;;;22.85;8.85;;;;;;;6.75;61.44;101669.22;4919574;28;114041;-77
2024/02/27 06:16:31;;;;;;;23.98;8.95;;;;;;;6.75;61.21;101674.47;4936044;28;124051;-77
2024/02/27 06:19:00;;;;;;;23.17;9.40;;;;;;;6.76;61.45;101681.50;4924398;28;124103;-77
2024/02/27 06:24:15;;;;;;;25.63;12.13;;;;;;;6.74;61.27;101699.06;4941520;28;114782;-79
2024/02/27 06:26:43;;;;;;;26.67;12.52;;;;;;;6.74;61.35;101699.06;4942976;28;123736;-79
2024/02/27 06:29:10;;;;;;;24.33;10.75;;;;;;;6.74;61.36;101704.34;4919125;28;121825;-77
2024/02/27 06:31:37;;;;;;;23.30;11.10;;;;;;;6.77;61.35;101714.81;4893389;28;114866;-77
2024/02/27 06:34:12;;;;;;;23.98;10.45;;;;;;;6.77;61.34;101709.53;4906918;28;114512;-77
2024/02/27 06:36:39;;;;;;;23.35;10.95;;;;;;;6.79;61.55;101706.88;4921359;28;123928;-77
2024/02/27 06:39:15;;;;;;;25.70;11.38;;;;;;;6.78;61.50;101711.28;4911483;28;124128;-76
2024/02/27 06:41:50;;;;;;;21.08;10.13;;;;;;;6.79;61.71;101712.16;4926024;28;113992;-76
2024/02/27 06:44:18;;;;;;;21.83;9.40;;;;;;;6.78;61.28;101721.81;4932260;28;114113;-76
2024/02/27 06:46:46;;;;;;;22.75;10.25;;;;;;;6.81;61.41;101727.03;4936685;28;124312;-77
2024/02/27 06:49:13;;;;;;;22.13;10.70;;;;;;;6.82;61.39;101723.50;4919497;28;123478;-76
2024/02/27 06:51:48;;;;;;;;;;;;;;;6.82;61.48;101723.50;4913530;28;113876;-76
2024/02/27 06:54:18;;;;;;;23.10;9.52;;;;;;;6.85;61.36;101721.72;4915047;28;113112;-76
2024/02/27 06:56:45;;;;;;;17.88;8.65;;;;;;;6.86;61.26;101726.13;4907228;28;124391;-76
2024/02/27 06:59:13;;;;;;;22.60;10.55;;;;;;;6.87;61.56;101725.19;4915903;28;123159;-75
2024/02/27 07:01:40;;;;;;;23.75;10.63;;;;;;;6.88;61.42;101722.56;4933310;28;113937;-76
2024/02/27 07:04:07;;;;;;;24.23;10.73;;;;;;;6.90;61.32;101725.16;4919358;28;113838;-76
2024/02/27 07:06:35;;;;;;;21.63;10.00;;;;;;;6.91;61.36;101717.25;4934363;28;124689;-77
2024/02/27 07:09:04;;;;;;;21.15;9.07;;;;;;;6.92;61.26;101712.84;4934297;28;123973;-76
2024/02/27 07:11:33;;;;;;;19.80;9.27;;;;;;;6.91;61.25;101716.34;4924830;28;114338;-76
2024/02/27 07:14:01;;;;;;;21.10;10.02;;;;;;;6.91;61.15;101722.50;4919491;28;114399;-76
2024/02/27 07:16:28;;;;;;;22.42;10.00;;;;;;;6.91;61.53;101721.63;4932521;28;124464;-76
2024/02/27 07:18:56;;;;;;;21.58;9.23;;;;;;;6.91;61.36;101732.16;4913090;28;124076;-76
2024/02/27 07:21:24;;;;;;;20.20;9.80;;;;;;;6.91;61.29;101740.06;4902309;28;114178;-75
2024/02/27 07:23:59;;;;;;;19.98;8.98;;;;;;;6.89;61.29;101736.56;4930885;28;114903;-75
2024/02/27 07:26:26;;;;;;;23.77;10.25;;;;;;;6.89;61.36;101733.94;4926327;28;124773;-77
2024/02/27 07:28:55;;;;;;;23.42;9.90;;;;;;;6.90;61.48;101725.16;4918306;28;123831;-78
2024/02/27 07:31:22;;;;;;;20.75;9.75;;;;;;;6.89;61.29;101723.41;4933350;28;114150;-75
2024/02/27 07:33:52;;;;;;;21.20;9.30;;;;;;;6.89;61.20;101715.50;4915456;28;113225;-76
2024/02/27 07:36:20;;;;;;;21.92;9.75;;;;;;;6.88;61.28;101712.00;4917282;28;122923;-75
2024/02/27 07:38:47;;;;;;;21.45;9.75;;;;;;;6.88;61.32;101721.69;4917574;28;122933;-75
2024/02/27 07:41:14;;;;;;;20.90;10.05;;;;;;;6.88;61.32;101726.97;4924255;28;114320;-76
2024/02/27 07:43:48;;;;;;;23.30;10.88;;;;;;;6.87;61.30;101735.72;4934042;28;114290;-76
2024/02/27 07:46:16;;;;;;;22.08;10.40;;;;;;;6.88;61.27;101737.50;4918971;28;123239;-75
2024/02/27 07:48:44;;;;;;;22.45;10.10;;;;;;;6.86;61.39;101742.78;4918894;28;124389;-75
2024/02/27 07:51:39;;;;;;;20.30;9.85;;;;;;;6.88;61.57;101742.75;4926609;28;114339;-75
2024/02/27 07:54:07;;;;;;;21.87;9.93;;;;;;;6.88;61.70;101745.38;4908241;28;113714;-78
2024/02/27 07:56:35;;;;;;;21.33;10.00;;;;;;;6.90;61.72;101738.34;4913731;28;123825;-76
2024/02/27 07:59:02;;;;;;;20.02;10.68;;;;;;;6.95;61.82;101744.38;4933199;28;123783;-77
2024/02/27 08:01:40;;;;;;;22.63;9.88;;;;;;;6.98;61.63;101739.06;4934214;28;114264;-77
2024/02/27 08:04:07;;;;;;;22.23;10.38;;;;;;;7.01;61.48;101739.03;4917719;28;113754;-77
2024/02/27 08:06:38;;;;;;;22.83;10.52;;;;;;;7.04;61.73;101744.22;4926786;28;124775;-76
2024/02/27 08:09:09;;;;;;;23.40;10.50;;;;;;;7.06;61.29;101742.44;4932247;28;124458;-76
2024/02/27 08:11:38;;;;;;;23.13;10.90;;;;;;;7.09;61.79;101742.41;4915687;28;115533;-76
2024/02/27 08:14:06;;;;;;;22.70;10.80;;;;;;;7.13;61.84;101744.09;4934527;28;115032;-75
2024/02/27 08:16:34;;;;;;;26.13;11.32;;;;;;;7.15;61.37;101746.72;4934723;28;124058;-77
2024/02/27 08:19:04;;;;;;;25.25;10.98;;;;;;;7.17;61.60;101756.31;4931643;28;123647;-76
2024/02/27 08:21:36;;;;;;;22.38;10.60;;;;;;;7.18;61.51;101763.34;4915265;28;113846;-77
2024/02/27 08:24:05;;;;;;;22.45;10.38;;;;;;;7.17;61.60;101761.56;4933934;28;114255;-77
2024/02/27 08:26:34;;;;;;;24.75;10.90;;;;;;;7.18;61.47;101763.34;4929283;28;124230;-76
2024/02/27 08:29:01;;;;;;;24.17;10.10;;;;;;;7.20;61.30;101766.81;4927703;28;124017;-76
2024/02/27 08:31:37;;;;;;;21.55;10.65;;;;;;;7.21;61.30;101768.56;4931598;28;114591;-76
2024/02/27 08:34:05;;;;;;;21.90;10.27;;;;;;;7.19;61.38;101772.97;4918665;28;114233;-76
2024/02/27 08:36:33;;;;;;;19.48;9.05;;;;;;;7.17;61.36;101764.22;4916801;28;123473;-76
2024/02/27 08:39:00;;;;;;;19.55;9.55;;;;;;;7.14;61.12;101788.00;4920731;28;124399;-77
2024/02/27 08:41:54;;;;;;;20.40;9.93;;;;;;;7.11;61.41;101798.56;4935850;28;96638;-76
2024/02/27 08:44:22;;;;;;;21.65;9.48;;;;;;;7.11;61.42;101798.56;4924198;28;114250;-76
2024/02/27 08:46:51;;;;;;;21.98;10.30;;;;;;;7.09;61.12;101810.88;4906161;28;124022;-77
2024/02/27 08:49:19;;;;;;;21.02;9.60;;;;;;;7.08;61.56;101809.13;4893199;28;122731;-77
2024/02/27 08:51:47;;;;;;;18.95;10.05;;;;;;;7.08;61.54;101813.53;4930865;28;114201;-77
2024/02/27 08:54:17;;;;;;;22.80;10.32;;;;;;;7.09;61.56;101810.88;4917993;28;113854;-76
2024/02/27 08:56:45;;;;;;;20.52;9.80;;;;;;;7.12;61.37;101816.13;4928913;28;124042;-77
2024/02/27 08:59:12;;;;;;;19.92;9.25;;;;;;;7.17;61.77;101824.81;4916878;28;123171;-76
2024/02/27 09:01:39;;;;;;;22.67;10.38;;;;;;;7.21;61.41;101821.25;4903369;28;115332;-76
2024/02/27 09:04:07;;;;;;;21.23;10.25;;;;;;;7.24;61.38;101819.47;4933976;28;115008;-76
2024/02/27 09:06:40;;;;;;;20.88;9.43;;;;;;;7.25;61.44;101826.47;4921067;28;124767;-76
2024/02/27 09:09:08;;;;;;;19.35;9.43;;;;;;;7.27;61.26;101824.66;4921664;28;124322;-76
2024/02/27 09:11:35;;;;;;;21.95;9.95;;;;;;;7.31;61.71;101821.09;4932149;28;114287;-76
2024/02/27 09:14:03;;;;;;;20.80;9.75;;;;;;;7.37;61.48;101826.28;4916227;28;114503;-76
2024/02/27 09:16:30;;;;;;;21.27;9.73;;;;;;;7.43;61.43;101825.31;4935029;28;123228;-76
2024/02/27 09:19:00;;;;;;;25.00;10.32;;;;;;;7.46;61.47;101826.13;4931669;28;123986;-76
2024/02/27 09:21:27;;;;;;;20.83;9.60;;;;;;;7.49;61.80;101826.06;4932168;28;114332;-76
2024/02/27 09:23:56;;;;;;;23.42;9.82;;;;;;;7.55;61.48;101835.63;4939282;28;113965;-76
2024/02/27 09:26:23;;;;;;;20.65;8.80;;;;;;;7.62;62.00;101831.16;4904704;28;124254;-75
2024/02/27 09:28:51;;;;;;;21.17;9.57;;;;;;;7.69;61.50;101832.78;4927614;28;123913;-76
2024/02/27 09:31:18;;;;;;;21.88;10.23;;;;;;;7.73;61.53;101834.47;4913409;28;114807;-76
2024/02/27 09:34:02;;;;;;;16.85;8.52;;;;;;;7.78;61.34;101848.47;4934013;28;114514;-76
2024/02/27 09:36:30;;;;;;;20.42;10.18;;;;;;;7.80;61.42;101847.53;4932261;28;124075;-76
2024/02/27 09:38:58;;;;;;;18.15;8.57;;;;;;;7.82;61.69;101855.41;4931396;28;124218;-75
2024/02/27 09:41:35;;;;;;;20.55;9.38;;;;;;;7.83;61.51;101843.94;4930802;28;114352;-76
2024/02/27 09:44:03;;;;;;;20.80;9.43;;;;;;;7.82;61.25;101841.34;4922845;28;113926;-76
2024/02/27 09:46:33;;;;;;;19.80;9.48;;;;;;;7.79;60.93;101852.81;4930594;28;123808;-76
2024/02/27 09:49:03;;;;;;;18.88;9.38;;;;;;;7.77;61.02;101851.97;4928529;28;124509;-75
2024/02/27 09:51:32;;;;;;;22.98;9.77;;;;;;;7.79;61.11;101852.81;4933075;28;115111;-76
2024/02/27 09:54:01;;;;;;;19.95;8.75;;;;;;;7.81;61.31;101864.22;4933949;28;114805;-75
2024/02/27 09:56:28;;;;;;;20.60;9.35;;;;;;;7.84;61.15;101853.63;4897956;28;122988;-75
2024/02/27 09:58:58;;;;;;;18.80;9.07;;;;;;;7.88;61.04;101852.66;4927153;28;123906;-76
2024/02/27 10:01:30;;;;;;;16.95;8.38;;;;;;;7.93;61.33;101856.09;4931407;28;113920;-76
2024/02/27 10:03:59;;;;;;;19.98;9.25;;;;;;;7.96;61.08;101848.13;4930110;28;113504;-76
2024/02/27 10:06:30;;;;;;;18.45;8.60;;;;;;;7.98;61.27;101856.88;4911322;28;124031;-76
2024/02/27 10:09:01;;;;;;;17.73;8.50;;;;;;;7.98;60.93;101856.88;4908856;28;122743;-75
2024/02/27 10:11:29;;;;;;;21.25;9.55;;;;;;;8.02;61.16;101856.81;4911994;28;113312;-76
2024/02/27 10:13:58;;;;;;;16.52;8.20;;;;;;;8.05;61.00;101856.78;4931473;28;114851;-75
2024/02/27 10:16:25;;;;;;;20.15;8.73;;;;;;;8.08;61.23;101856.69;4931709;28;124037;-76
2024/02/27 10:18:59;;;;;;;17.67;9.73;;;;;;;8.09;60.71;101853.19;4928248;28;122498;-76
2024/02/27 10:21:27;;;;;;;20.92;9.68;;;;;;;8.06;60.87;101861.13;4933237;28;113569;-76
2024/02/27 10:24:02;;;;;;;18.65;9.15;;;;;;;8.03;60.67;101859.44;4935724;28;114057;-75
2024/02/27 10:26:30;;;;;;;20.23;9.27;;;;;;;8.03;60.88;101848.03;4914252;28;123455;-76
2024/02/27 10:29:00;;;;;;;19.52;9.65;;;;;;;8.03;60.73;101855.94;4927919;28;123516;-77
2024/02/27 10:31:27;;;;;;;19.63;9.68;;;;;;;8.03;60.69;101853.31;4925071;28;114298;-76
2024/02/27 10:33:55;;;;;;;22.77;10.43;;;;;;;8.06;60.74;101847.94;4937024;28;114554;-76
2024/02/27 10:36:22;;;;;;;20.23;9.90;;;;;;;8.06;60.86;101847.94;4914030;28;122465;-76
2024/02/27 10:38:50;;;;;;;18.98;9.32;;;;;;;8.06;60.87;101845.31;4912709;28;123817;-75
2024/02/27 10:41:19;;;;;;;18.95;9.02;;;;;;;8.05;60.75;101851.50;4929813;28;115111;-76
2024/02/27 10:43:47;;;;;;;20.73;9.70;;;;;;;8.08;60.74;101843.50;4932191;28;114769;-76
2024/02/27 10:46:22;;;;;;;16.98;8.80;;;;;;;8.09;60.55;101855.81;4929990;28;124560;-75
2024/02/27 10:48:49;;;;;;;17.63;9.50;;;;;;;8.13;60.74;101849.59;4937304;28;125124;-75
2024/02/27 10:51:18;;;;;;;19.85;10.00;;;;;;;8.17;60.61;101851.25;4925014;28;113675;-76
2024/02/27 10:53:48;;;;;;;23.63;9.93;;;;;;;8.18;60.75;101853.00;4918604;28;114159;-76
2024/02/27 10:56:16;;;;;;;20.27;9.75;;;;;;;8.21;60.58;101863.50;4917905;28;124012;-75
2024/02/27 10:58:48;;;;;;;19.50;9.63;;;;;;;8.24;60.63;101863.44;4930510;28;125038;-75
2024/02/27 11:01:17;;;;;;;19.75;9.90;;;;;;;8.26;60.88;101866.91;4934425;28;114765;-77
2024/02/27 11:03:50;;;;;;;20.23;10.18;;;;;;;8.29;60.66;101861.59;4935528;28;113834;-77
2024/02/27 11:06:30;;;;;;;17.05;9.00;;;;;;;8.29;60.48;101861.59;4935810;28;123868;-76
2024/02/27 11:09:07;;;;;;;20.33;9.52;;;;;;;8.29;60.34;101866.00;4904248;28;123340;-75
2024/02/27 11:11:37;;;;;;;20.60;10.02;;;;;;;8.33;60.75;101851.84;4932113;28;114399;-75
2024/02/27 11:14:06;;;;;;;22.05;10.32;;;;;;;8.38;60.51;101850.88;4914767;28;113476;-77
2024/02/27 11:16:38;;;;;;;21.73;10.23;;;;;;;8.44;60.77;101856.94;4923362;28;124012;-76
2024/02/27 11:19:16;;;;;;;22.65;9.90;;;;;;;8.47;60.39;101848.97;4924903;28;124290;-75
2024/02/27 11:21:52;;;;;;;22.58;10.05;;;;;;;8.52;60.83;101849.75;4907138;28;113827;-75
2024/02/27 11:24:19;;;;;;;23.50;9.77;;;;;;;8.59;60.68;101848.72;4915848;28;114082;-76